Time;durP1;ratioP1;P1;durP2;ratioP2;P2;SDS_P1;SDS_P2;PMS_P1;PMS_P2;Temp;Humidity;BMP_temperature;BMP_pressure;BME280_temperature;BME280_humidity;BME280_pressure;Samples;Min_cycle;Max_cycle;Signal;HPM_P1;HPM_P2
2022/06/06 00:01:58;;;;;;;5.00;4.50;;;21.60;94.50;;;;;;5033101;28;20451;-65
2022/06/06 00:04:27;;;;;;;4.10;3.77;;;21.70;94.60;;;;;;5033293;28;20422;-65
2022/06/06 00:06:58;;;;;;;4.80;4.33;;;21.70;94.50;;;;;;5033365;28;20248;-65
2022/06/06 00:09:24;;;;;;;5.97;4.80;;;21.70;94.40;;;;;;5033547;28;20424;-65
2022/06/06 00:11:50;;;;;;;4.50;4.10;;;21.70;94.50;;;;;;5033301;28;20492;-66
2022/06/06 00:14:17;;;;;;;5.63;3.83;;;21.60;94.70;;;;;;5033178;28;20887;-66
2022/06/06 00:16:43;;;;;;;4.83;4.43;;;21.50;94.80;;;;;;5033030;28;20240;-66
2022/06/06 00:19:11;;;;;;;4.20;3.80;;;21.60;94.90;;;;;;5033322;28;20465;-66
2022/06/06 00:21:38;;;;;;;4.40;4.00;;;21.50;94.80;;;;;;5032984;28;20524;-65
2022/06/06 00:24:05;;;;;;;5.17;4.87;;;21.60;94.90;;;;;;5033230;28;20413;-66
2022/06/06 00:26:32;;;;;;;4.30;4.00;;;21.60;95.00;;;;;;5033422;28;20935;-66
2022/06/06 00:28:58;;;;;;;4.60;4.20;;;21.60;95.00;;;;;;5033191;28;20405;-66
2022/06/06 00:36:57;;;;;;;5.73;4.53;;;21.60;95.10;;;;;;5033595;28;20402;-66
2022/06/06 00:39:23;;;;;;;5.07;4.57;;;21.60;95.10;;;;;;5032910;28;20448;-67
2022/06/06 00:41:51;;;;;;;4.23;3.93;;;21.60;95.10;;;;;;5032602;28;20191;-66
2022/06/06 00:44:20;;;;;;;5.07;4.67;;;21.60;95.20;;;;;;5032871;28;20173;-67
2022/06/06 00:46:52;;;;;;;4.73;4.33;;;21.60;95.20;;;;;;5033133;28;20499;-66
2022/06/06 00:49:40;;;;;;;3.97;3.67;;;21.60;95.40;;;;;;5032900;28;20420;-67
2022/06/06 00:52:13;;;;;;;4.73;4.33;;;21.60;95.40;;;;;;5032435;28;20481;-66
2022/06/06 00:54:40;;;;;;;4.47;4.07;;;21.60;95.60;;;;;;5032598;28;20533;-67
2022/06/06 00:57:13;;;;;;;4.23;3.93;;;21.60;96.80;;;;;;5032578;28;20405;-67
2022/06/06 00:59:40;;;;;;;4.17;3.87;;;21.40;98.40;;;;;;5032843;28;20457;-68
2022/06/06 01:02:10;;;;;;;4.87;4.47;;;21.30;99.80;;;;;;5032400;28;20449;-68
2022/06/06 01:04:36;;;;;;;5.23;4.80;;;21.10;99.90;;;;;;5032463;28;20473;-68
2022/06/06 01:07:04;;;;;;;6.50;5.90;;;21.00;99.90;;;;;;5033152;28;20408;-67
2022/06/06 01:09:30;;;;;;;5.53;5.03;;;20.70;99.90;;;;;;5032774;28;20406;-67
2022/06/06 01:11:59;;;;;;;4.80;4.47;;;20.60;99.90;;;;;;5032658;28;20978;-67
2022/06/06 01:14:29;;;;;;;6.87;5.50;;;20.40;99.90;;;;;;5032939;28;20660;-67
2022/06/06 01:17:02;;;;;;;5.53;5.03;;;20.40;99.90;;;;;;5032095;28;20430;-67
2022/06/06 01:19:36;;;;;;;5.40;5.00;;;20.30;99.90;;;;;;5032373;28;20458;-66
2022/06/06 01:22:32;;;;;;;5.60;5.10;;;20.20;99.90;;;;;;5032150;28;20418;-68
2022/06/06 01:25:33;;;;;;;9.80;5.50;;;20.20;99.90;;;;;;5031966;28;20485;-67
2022/06/06 01:28:42;;;;;;;5.93;5.43;;;20.10;99.90;;;;;;5032133;28;20893;-67
2022/06/06 01:31:14;;;;;;;4.53;4.13;;;20.10;99.90;;;;;;5029293;28;20422;-67
2022/06/06 01:33:49;;;;;;;6.13;5.60;;;20.00;99.90;;;;;;5032559;28;20390;-66
2022/06/06 01:36:14;;;;;;;5.70;5.20;;;19.90;99.90;;;;;;5032631;28;20416;-66
2022/06/06 01:38:40;;;;;;;6.37;5.73;;;19.90;99.90;;;;;;5032221;28;20407;-66
2022/06/06 01:41:14;;;;;;;6.00;5.50;;;19.90;99.90;;;;;;5031690;28;20214;-67
2022/06/06 01:43:50;;;;;;;5.47;4.97;;;19.80;99.90;;;;;;5031700;28;20162;-66
2022/06/06 01:46:26;;;;;;;5.43;5.00;;;19.90;99.90;;;;;;5030028;28;20503;-66
2022/06/06 01:48:52;;;;;;;5.70;5.30;;;19.90;99.90;;;;;;5031702;28;20429;-67
2022/06/06 01:51:24;;;;;;;5.70;5.20;;;19.90;99.90;;;;;;5031721;28;20480;-67
2022/06/06 01:53:49;;;;;;;7.57;6.23;;;19.90;99.90;;;;;;5031581;28;20406;-67
2022/06/06 01:56:26;;;;;;;7.20;6.00;;;19.90;99.90;;;;;;5031947;28;20433;-68
2022/06/06 01:58:52;;;;;;;6.03;5.50;;;19.80;99.90;;;;;;5031646;28;20838;-68
2022/06/06 02:01:19;;;;;;;7.20;5.77;;;19.80;99.90;;;;;;5031715;28;20463;-68
2022/06/06 02:03:44;;;;;;;5.67;5.17;;;19.80;99.90;;;;;;5032549;28;20398;-68
2022/06/06 02:06:10;;;;;;;7.47;6.77;;;19.80;99.90;;;;;;5031395;28;20464;-68
2022/06/06 02:08:36;;;;;;;7.10;6.40;;;19.80;99.90;;;;;;5031327;28;20179;-68
2022/06/06 02:11:03;;;;;;;5.70;5.27;;;19.80;99.90;;;;;;5031538;28;20913;-68
2022/06/06 02:13:28;;;;;;;6.00;5.50;;;19.70;99.90;;;;;;5032053;28;20175;-68
2022/06/06 02:15:54;;;;;;;6.00;5.50;;;19.70;99.90;;;;;;5031166;28;20931;-67
2022/06/06 02:18:22;;;;;;;5.27;4.83;;;19.60;99.90;;;;;;5031389;28;20179;-67
2022/06/06 02:20:48;;;;;;;5.47;5.07;;;19.50;99.90;;;;;;5031562;28;20494;-67
2022/06/06 02:23:14;;;;;;;5.60;5.10;;;19.40;99.90;;;;;;5031259;28;20438;-68
2022/06/06 02:25:40;;;;;;;7.03;6.33;;;19.30;99.90;;;;;;5031369;28;20410;-67
2022/06/06 02:28:06;;;;;;;6.67;6.10;;;19.40;99.90;;;;;;5031255;28;20467;-68
2022/06/06 02:30:34;;;;;;;6.47;5.80;;;19.40;99.90;;;;;;5031237;28;20415;-68
2022/06/06 02:33:00;;;;;;;7.00;6.30;;;19.30;99.90;;;;;;5031111;28;20423;-68
2022/06/06 02:35:29;;;;;;;8.67;6.27;;;19.30;99.90;;;;;;5031221;28;20803;-68
2022/06/06 02:37:56;;;;;;;6.27;5.67;;;19.30;99.90;;;;;;5031208;28;20410;-67
2022/06/06 02:40:23;;;;;;;7.27;6.67;;;19.30;99.90;;;;;;5031313;28;20514;-67
2022/06/06 02:42:49;;;;;;;7.43;6.73;;;19.30;99.90;;;;;;5031431;28;20900;-67
2022/06/06 02:45:18;;;;;;;6.80;6.20;;;19.30;99.90;;;;;;5030933;28;20509;-67
2022/06/06 02:47:46;;;;;;;6.87;6.27;;;19.30;99.90;;;;;;5031642;28;20175;-67
2022/06/06 02:50:14;;;;;;;7.90;7.20;;;19.30;99.90;;;;;;5031311;28;20509;-68
2022/06/06 02:52:40;;;;;;;7.50;6.90;;;19.30;99.90;;;;;;5031583;28;20920;-68
2022/06/06 02:55:08;;;;;;;7.70;7.00;;;19.30;99.90;;;;;;5031598;28;20419;-67
2022/06/06 02:57:38;;;;;;;7.40;6.70;;;19.20;99.90;;;;;;5030976;28;20190;-67
2022/06/06 03:00:06;;;;;;;6.97;6.37;;;19.20;99.90;;;;;;5031499;28;20466;-67
2022/06/06 03:02:33;;;;;;;7.33;6.70;;;19.10;99.90;;;;;;5030822;28;20453;-68
2022/06/06 03:04:59;;;;;;;6.87;6.23;;;19.20;99.90;;;;;;5030857;28;20451;-68
2022/06/06 03:07:27;;;;;;;6.87;5.53;;;19.10;99.90;;;;;;5031141;28;20706;-68
2022/06/06 03:10:02;;;;;;;6.90;6.30;;;19.10;99.90;;;;;;5031226;28;20325;-68
2022/06/06 03:13:01;;;;;;;7.10;6.50;;;19.00;99.90;;;;;;5030752;28;20442;-67
2022/06/06 03:22:36;;;;;;;7.90;7.30;;;18.80;99.90;;;;;;5033830;28;20436;-67
2022/06/06 03:25:22;;;;;;;7.40;6.80;;;18.70;99.90;;;;;;5034486;28;20493;-68
2022/06/06 03:27:55;;;;;;;7.80;7.10;;;18.60;99.90;;;;;;5034788;28;20390;-68
2022/06/06 03:30:31;;;;;;;8.30;7.60;;;18.50;99.90;;;;;;5034265;28;20410;-67
2022/06/06 03:33:23;;;;;;;8.10;7.30;;;18.40;99.90;;;;;;5034593;28;20511;-68
2022/06/06 03:36:12;;;;;;;9.20;8.30;;;18.40;99.90;;;;;;5034209;28;20452;-68
2022/06/06 03:39:06;;;;;;;9.10;8.20;;;18.40;99.90;;;;;;5034496;28;20401;-68
2022/06/06 03:41:53;;;;;;;9.13;8.23;;;18.30;99.90;;;;;;5033876;28;21053;-68
2022/06/06 03:44:57;;;;;;;11.23;9.20;;;18.10;99.90;;;;;;5034224;28;20947;-67
2022/06/06 03:47:39;;;;;;;9.90;9.10;;;18.10;99.90;;;;;;5033953;28;20425;-68
2022/06/06 03:50:57;;;;;;;10.30;9.30;;;18.00;99.90;;;;;;5034011;28;20906;-67
2022/06/06 03:53:41;;;;;;;10.23;9.17;;;17.90;99.90;;;;;;5021613;28;20418;-67
2022/06/06 03:56:31;;;;;;;11.67;9.37;;;17.90;99.90;;;;;;5033624;28;20916;-67
2022/06/06 03:58:58;;;;;;;12.07;10.87;;;17.90;99.90;;;;;;5033715;28;20421;-68
2022/06/06 04:01:24;;;;;;;11.60;9.60;;;17.80;99.90;;;;;;5033417;28;21258;-67
2022/06/06 04:03:51;;;;;;;10.87;9.93;;;17.70;99.90;;;;;;5033712;28;20413;-67
2022/06/06 04:06:18;;;;;;;11.43;10.23;;;17.80;99.90;;;;;;5033516;28;20192;-67
2022/06/06 04:08:44;;;;;;;15.63;10.70;;;17.70;99.90;;;;;;5033460;28;20405;-67
2022/06/06 04:11:39;;;;;;;11.63;10.57;;;17.70;99.90;;;;;;5033347;28;20492;-67
2022/06/06 04:14:16;;;;;;;10.47;9.47;;;17.70;99.90;;;;;;5033911;28;20212;-67
2022/06/06 04:16:48;;;;;;;12.33;10.10;;;17.70;99.90;;;;;;5033471;28;20457;-68
2022/06/06 04:19:35;;;;;;;11.80;10.70;;;17.70;99.90;;;;;;5033428;28;20435;-67
2022/06/06 04:22:41;;;;;;;10.77;9.60;;;17.70;99.90;;;;;;5033252;28;20482;-67
2022/06/06 04:25:27;;;;;;;10.97;9.93;;;17.70;99.90;;;;;;5033165;28;20516;-68
2022/06/06 04:28:07;;;;;;;11.43;10.30;;;17.70;99.90;;;;;;5033238;28;20884;-67
2022/06/06 04:30:39;;;;;;;11.40;10.17;;;17.70;99.90;;;;;;5033339;28;20408;-68
2022/06/06 04:33:11;;;;;;;12.37;10.23;;;17.60;99.90;;;;;;5032755;28;20990;-67
2022/06/06 04:35:57;;;;;;;9.20;8.30;;;17.60;99.90;;;;;;5033076;28;20958;-67
2022/06/06 04:38:58;;;;;;;10.27;9.20;;;17.60;99.90;;;;;;5033322;28;20389;-67
2022/06/06 04:41:34;;;;;;;10.80;8.20;;;17.70;99.90;;;;;;5032796;28;20440;-67
2022/06/06 04:44:18;;;;;;;10.93;8.90;;;17.70;99.90;;;;;;5033378;28;20404;-67
2022/06/06 04:46:54;;;;;;;11.67;10.13;;;17.70;99.90;;;;;;5032845;28;20416;-70
2022/06/06 04:49:21;;;;;;;9.80;8.50;;;17.70;99.90;;;;;;5033024;28;20399;-67
2022/06/06 04:51:48;;;;;;;9.80;8.80;;;17.70;99.90;;;;;;5032757;28;20500;-67
2022/06/06 04:54:18;;;;;;;11.80;10.60;;;17.70;99.90;;;;;;5032622;28;20399;-66
2022/06/06 04:56:45;;;;;;;10.67;9.57;;;17.80;99.90;;;;;;5032500;28;20759;-67
2022/06/06 04:59:13;;;;;;;11.13;9.73;;;17.80;99.90;;;;;;5032590;28;20888;-66
2022/06/06 05:01:39;;;;;;;10.30;9.17;;;17.80;99.90;;;;;;5032400;28;20445;-67
2022/06/06 05:04:05;;;;;;;10.77;8.97;;;17.80;99.90;;;;;;5032634;28;20419;-65
2022/06/06 05:06:58;;;;;;;11.20;10.10;;;17.80;99.90;;;;;;5032627;28;20402;-66
2022/06/06 05:09:50;;;;;;;14.17;12.30;;;17.90;99.90;;;;;;5032964;28;20693;-68
2022/06/06 05:12:31;;;;;;;11.63;10.43;;;17.90;99.90;;;;;;5032573;28;20417;-67
2022/06/06 05:15:25;;;;;;;10.20;8.80;;;17.90;99.90;;;;;;5032508;28;20403;-67
2022/06/06 05:17:59;;;;;;;10.43;9.47;;;17.80;99.90;;;;;;5032534;28;20394;-68
2022/06/06 05:20:45;;;;;;;10.57;9.50;;;17.80;99.90;;;;;;5032467;28;20466;-66
2022/06/06 05:23:48;;;;;;;16.40;10.73;;;17.80;99.90;;;;;;5029554;28;20531;-67
2022/06/06 05:26:41;;;;;;;10.77;9.77;;;17.90;99.90;;;;;;5032034;28;20441;-66
2022/06/06 05:29:30;;;;;;;9.30;8.40;;;17.90;99.90;;;;;;5012582;28;20395;-67
2022/06/06 05:32:15;;;;;;;9.57;8.70;;;17.90;99.90;;;;;;5026220;28;20513;-67
2022/06/06 05:34:49;;;;;;;12.87;10.10;;;18.00;99.90;;;;;;5031986;28;20405;-66
2022/06/06 05:37:40;;;;;;;9.10;8.20;;;18.00;99.90;;;;;;5032290;28;20415;-66
2022/06/06 05:40:18;;;;;;;9.30;8.30;;;18.10;99.90;;;;;;5033770;28;20453;-67
2022/06/06 05:43:01;;;;;;;8.73;7.83;;;18.10;99.90;;;;;;5031802;28;20427;-65
2022/06/06 05:45:39;;;;;;;7.97;7.23;;;18.10;99.90;;;;;;5031917;28;20405;-67
2022/06/06 05:48:17;;;;;;;8.50;6.97;;;18.30;99.90;;;;;;5032470;28;20989;-67
2022/06/06 05:51:01;;;;;;;8.13;7.30;;;18.50;99.90;;;;;;5032086;28;20780;-67
2022/06/06 05:53:58;;;;;;;7.30;6.60;;;18.50;99.90;;;;;;5031941;28;20401;-67
2022/06/06 05:56:35;;;;;;;6.70;6.13;;;18.60;99.90;;;;;;5033461;28;20412;-68
2022/06/06 05:59:23;;;;;;;6.97;6.30;;;18.80;99.90;;;;;;5032030;28;20946;-66
2022/06/06 06:02:09;;;;;;;6.90;6.30;;;19.00;99.90;;;;;;5031443;28;20862;-66
2022/06/06 06:04:44;;;;;;;6.83;6.23;;;19.00;99.90;;;;;;5031469;28;20831;-66
2022/06/06 06:07:18;;;;;;;6.63;5.77;;;19.20;99.90;;;;;;5031618;28;20490;-66
2022/06/06 06:10:02;;;;;;;6.70;6.03;;;19.50;99.90;;;;;;5031507;28;20410;-66
2022/06/06 06:13:01;;;;;;;5.80;5.30;;;19.90;99.90;;;;;;5031252;28;20421;-66
2022/06/06 06:15:26;;;;;;;5.83;5.23;;;19.90;99.90;;;;;;5031291;28;20412;-66
2022/06/06 06:17:56;;;;;;;5.97;4.90;;;20.20;99.90;;;;;;5031409;28;20772;-66
2022/06/06 06:20:30;;;;;;;5.67;5.17;;;20.20;99.90;;;;;;5031298;28;20202;-66
2022/06/06 06:23:11;;;;;;;8.60;5.77;;;20.50;99.90;;;;;;5031262;28;20955;-66
2022/06/06 06:25:39;;;;;;;4.83;4.40;;;20.40;99.90;;;;;;5031296;28;20724;-66
2022/06/06 06:28:10;;;;;;;5.30;4.80;;;21.10;99.90;;;;;;5031176;28;20413;-65
2022/06/06 06:30:42;;;;;;;5.07;4.57;;;21.70;99.90;;;;;;5032623;28;20413;-66
2022/06/06 06:33:22;;;;;;;4.80;4.30;;;21.90;99.90;;;;;;5030986;28;20438;-69
2022/06/06 06:36:13;;;;;;;5.73;5.00;;;21.80;99.90;;;;;;5030868;28;20447;-67
2022/06/06 06:38:45;;;;;;;7.20;4.93;;;21.20;99.90;;;;;;5000253;28;20422;-65
2022/06/06 06:41:33;;;;;;;4.43;4.13;;;21.40;99.90;;;;;;5030933;28;20456;-66
2022/06/06 06:44:08;;;;;;;5.07;4.57;;;21.50;99.90;;;;;;5031280;28;20398;-66
2022/06/06 06:46:57;;;;;;;4.93;4.53;;;22.00;99.90;;;;;;5010963;28;20779;-66
2022/06/06 06:49:35;;;;;;;4.23;3.80;;;22.40;99.90;;;;;;5011437;28;20532;-65
2022/06/06 06:52:10;;;;;;;4.40;4.10;;;22.00;99.90;;;;;;5011415;28;20581;-66
2022/06/06 06:55:18;;;;;;;6.53;4.07;;;22.60;99.90;;;;;;5011801;28;20406;-65
2022/06/06 06:57:56;;;;;;;3.87;3.47;;;22.50;99.90;;;;;;4995293;28;20452;-65
2022/06/06 07:00:23;;;;;;;3.13;2.90;;;23.50;99.90;;;;;;5029203;28;20870;-65
2022/06/06 07:09:19;;;;;;;3.50;3.20;;;24.30;99.90;;;;;;5034946;28;20436;-66
2022/06/06 07:12:26;;;;;;;3.80;3.40;;;24.30;99.90;;;;;;5034779;28;20807;-65
2022/06/06 07:15:06;;;;;;;3.50;3.20;;;24.50;99.90;;;;;;4992688;28;20415;-66
2022/06/06 07:17:40;;;;;;;4.07;3.67;;;25.00;99.90;;;;;;4993472;28;20403;-65
2022/06/06 07:20:10;;;;;;;4.03;3.63;;;24.90;99.90;;;;;;5020857;28;21040;-66
2022/06/06 07:25:28;;;;;;;4.13;3.20;;;24.00;99.90;;;;;;5025663;28;20935;-65
2022/06/06 07:27:54;;;;;;;4.17;3.80;;;24.00;99.90;;;;;;5034692;28;20406;-66
2022/06/06 07:30:21;;;;;;;3.97;3.53;;;25.10;99.90;;;;;;5035059;28;20406;-66
2022/06/06 07:33:05;;;;;;;4.63;4.13;;;25.30;99.90;;;;;;5029195;28;20689;-65
2022/06/06 07:35:41;;;;;;;3.60;3.30;;;25.80;99.90;;;;;;5034677;28;20789;-65
2022/06/06 07:38:52;;;;;;;4.10;3.80;;;25.70;99.90;;;;;;5034651;28;20973;-65
2022/06/06 07:41:39;;;;;;;3.97;3.30;;;25.90;99.90;;;;;;5009568;28;20580;-65
2022/06/06 07:44:14;;;;;;;2.93;2.73;;;26.50;99.90;;;;;;5034687;28;20668;-65
2022/06/06 07:46:57;;;;;;;3.57;3.27;;;25.80;99.90;;;;;;5034495;28;20441;-66
2022/06/06 07:49:27;;;;;;;3.17;2.97;;;25.00;99.90;;;;;;5034101;28;20410;-66
2022/06/06 07:52:33;;;;;;;3.63;3.20;;;24.10;99.90;;;;;;5034052;28;20840;-66
2022/06/06 07:55:05;;;;;;;3.60;3.00;;;24.30;99.90;;;;;;5025110;28;20418;-67
2022/06/06 07:57:49;;;;;;;3.60;3.30;;;26.30;99.90;;;;;;5034108;28;20529;-67
2022/06/06 08:00:20;;;;;;;4.27;3.00;;;27.50;99.90;;;;;;5034595;28;20778;-67
2022/06/06 08:03:07;;;;;;;3.20;2.93;;;27.50;99.90;;;;;;5033979;28;20813;-67
2022/06/06 08:05:51;;;;;;;3.30;2.40;;;28.00;99.90;;;;;;5034029;28;20399;-67
2022/06/06 08:08:44;;;;;;;2.60;2.40;;;26.90;99.90;;;;;;5033291;28;20402;-67
2022/06/06 08:11:21;;;;;;;3.33;3.07;;;25.60;99.90;;;;;;5033698;28;20402;-68
2022/06/06 08:13:54;;;;;;;2.73;2.53;;;27.50;99.90;;;;;;5034014;28;20488;-67
2022/06/06 08:16:39;;;;;;;2.60;2.40;;;26.00;99.90;;;;;;5033654;28;20402;-67
2022/06/06 08:19:07;;;;;;;2.97;2.70;;;26.10;99.90;;;;;;5033803;28;20767;-67
2022/06/06 08:21:37;;;;;;;2.67;2.47;;;26.50;99.90;;;;;;5033524;28;21102;-67
2022/06/06 08:24:06;;;;;;;3.47;3.20;;;28.30;99.90;;;;;;5032347;28;20417;-67
2022/06/06 08:26:37;;;;;;;2.60;2.40;;;27.30;99.90;;;;;;5032111;28;20406;-67
2022/06/06 08:29:05;;;;;;;2.70;2.50;;;27.50;99.90;;;;;;5033636;28;20813;-67
2022/06/06 08:31:31;;;;;;;2.90;2.50;;;26.80;99.90;;;;;;5033276;28;20461;-67
2022/06/06 08:33:57;;;;;;;2.70;2.50;;;26.20;99.90;;;;;;5033363;28;20406;-67
2022/06/06 08:36:41;;;;;;;2.67;2.47;;;27.10;99.90;;;;;;5033446;28;20288;-66
2022/06/06 08:39:21;;;;;;;2.40;2.20;;;26.40;99.90;;;;;;5033354;28;20191;-68
2022/06/06 08:42:08;;;;;;;2.80;2.60;;;25.40;99.90;;;;;;5033219;28;20927;-67
2022/06/06 08:45:08;;;;;;;2.83;2.57;;;25.00;99.90;;;;;;5033550;28;20394;-67
2022/06/06 08:47:45;;;;;;;2.70;2.50;;;24.90;99.90;;;;;;5033280;28;20482;-67
2022/06/06 08:50:45;;;;;;;3.63;2.60;;;26.10;99.90;;;;;;5033141;28;20440;-65
2022/06/06 08:53:59;;;;;;;2.03;1.93;;;25.50;99.90;;;;;;5033235;28;20959;-67
2022/06/06 08:56:33;;;;;;;3.00;2.40;;;26.70;99.90;;;;;;4971690;28;20452;-67
2022/06/06 08:59:16;;;;;;;2.57;2.37;;;26.60;99.90;;;;;;4971774;28;20915;-66
2022/06/06 09:02:06;;;;;;;3.23;2.13;;;27.00;99.90;;;;;;5010216;28;20457;-66
2022/06/06 09:04:53;;;;;;;3.00;2.70;;;27.60;99.90;;;;;;5032837;28;20779;-67
2022/06/06 09:07:34;;;;;;;3.07;2.87;;;26.20;99.90;;;;;;5064149;22;20497;-72
2022/06/06 09:10:14;;;;;;;2.50;2.30;;;25.10;99.90;;;;;;5032830;28;20410;-72
2022/06/06 09:12:50;;;;;;;2.20;2.10;;;24.90;99.90;;;;;;5032666;28;20410;-71
2022/06/06 09:15:37;;;;;;;2.93;2.73;;;25.60;99.90;;;;;;5032535;28;20398;-72
2022/06/06 09:18:17;;;;;;;3.30;2.60;;;25.70;99.90;;;;;;5031787;28;20734;-72
2022/06/06 09:20:49;;;;;;;2.20;2.07;;;26.00;99.90;;;;;;5037246;28;20460;-71
2022/06/06 09:23:33;;;;;;;3.63;2.60;;;26.10;99.90;;;;;;5044071;28;20408;-72
2022/06/06 09:26:13;;;;;;;3.57;2.87;;;26.10;99.90;;;;;;5037122;28;20426;-72
2022/06/06 09:28:44;;;;;;;2.50;2.30;;;26.40;99.90;;;;;;5032565;28;20394;-72
2022/06/06 09:31:41;;;;;;;2.30;2.10;;;27.00;99.90;;;;;;5032947;28;20414;-72
2022/06/06 09:34:28;;;;;;;2.57;2.37;;;26.10;99.90;;;;;;5032440;28;20803;-71
2022/06/06 09:37:33;;;;;;;2.60;2.40;;;25.90;99.90;;;;;;5032390;28;20508;-71
2022/06/06 09:40:18;;;;;;;2.87;2.67;;;26.00;99.90;;;;;;5032397;28;20453;-72
2022/06/06 09:42:56;;;;;;;2.87;2.30;;;26.20;99.90;;;;;;5032088;28;20438;-73
2022/06/06 09:45:33;;;;;;;2.80;2.60;;;26.30;99.90;;;;;;5031748;28;20441;-73
2022/06/06 09:48:29;;;;;;;2.10;1.90;;;26.40;99.90;;;;;;5032373;28;20421;-73
2022/06/06 09:51:16;;;;;;;3.00;2.50;;;26.20;99.90;;;;;;5031833;28;20410;-72
2022/06/06 10:00:07;;;;;;;2.43;2.23;;;26.30;99.90;;;;;;5032039;28;20484;-73
2022/06/06 10:03:14;;;;;;;2.10;1.90;;;25.80;99.90;;;;;;5031741;28;20406;-73
2022/06/06 10:06:17;;;;;;;2.37;2.17;;;27.20;99.90;;;;;;4995610;28;20783;-72
2022/06/06 10:09:14;;;;;;;2.63;2.37;;;26.20;99.90;;;;;;5031997;28;20460;-73
2022/06/06 10:11:53;;;;;;;2.60;2.40;;;25.90;99.90;;;;;;5031747;28;20482;-73
2022/06/06 10:14:57;;;;;;;2.80;2.50;;;25.90;99.90;;;;;;5031801;28;20409;-73
2022/06/06 10:17:32;;;;;;;2.70;2.50;;;25.70;99.90;;;;;;5031536;28;20418;-73
2022/06/06 10:20:21;;;;;;;2.63;2.43;;;25.90;99.90;;;;;;5031153;28;20449;-73
2022/06/06 10:22:56;;;;;;;2.90;2.70;;;26.20;99.90;;;;;;5031253;28;20885;-72
2022/06/06 10:25:38;;;;;;;2.67;1.83;;;26.10;99.90;;;;;;5030976;28;20910;-74
2022/06/06 10:28:20;;;;;;;2.77;2.57;;;25.80;99.90;;;;;;5031480;28;20426;-72
2022/06/06 10:31:05;;;;;;;2.47;2.27;;;26.80;99.90;;;;;;5031015;28;20417;-72
2022/06/06 10:33:55;;;;;;;4.60;2.40;;;26.50;99.90;;;;;;5031350;28;20429;-72
2022/06/06 10:36:54;;;;;;;2.63;2.40;;;25.90;99.90;;;;;;5031168;28;20516;-72
2022/06/06 10:40:01;;;;;;;2.30;2.10;;;25.60;99.90;;;;;;5031348;28;20398;-71
2022/06/06 10:42:50;;;;;;;2.83;2.40;;;26.00;99.90;;;;;;5007783;28;20423;-72
2022/06/06 10:45:16;;;;;;;2.73;2.53;;;25.90;99.90;;;;;;5029742;28;20437;-71
2022/06/06 10:47:57;;;;;;;3.97;1.97;;;26.00;99.90;;;;;;5031434;28;20839;-72
2022/06/06 10:54:18;;;;;;;3.20;2.73;;;25.30;99.90;;;;;;5023622;28;20411;-72
2022/06/06 10:57:19;;;;;;;2.70;2.47;;;25.90;99.90;;;;;;5031141;28;20426;-72
2022/06/06 11:00:08;;;;;;;3.50;2.50;;;25.10;99.90;;;;;;5031285;28;20530;-73
2022/06/06 11:03:15;;;;;;;2.57;2.37;;;24.70;99.90;;;;;;5019548;28;20419;-71
2022/06/06 11:06:02;;;;;;;2.40;2.20;;;25.40;99.90;;;;;;5020467;28;20936;-74
2022/06/06 11:08:39;;;;;;;2.37;2.17;;;25.70;99.90;;;;;;5031364;28;20492;-73
2022/06/06 11:11:39;;;;;;;2.83;2.50;;;25.50;99.90;;;;;;5031298;28;20413;-74
2022/06/06 11:14:41;;;;;;;2.50;2.30;;;25.50;99.90;;;;;;5031362;28;20433;-74
2022/06/06 11:17:31;;;;;;;2.50;2.30;;;26.00;99.90;;;;;;5031557;28;20451;-73
2022/06/06 11:20:28;;;;;;;4.10;2.10;;;26.50;99.90;;;;;;5031433;28;20453;-72
2022/06/06 11:23:07;;;;;;;2.30;2.07;;;26.80;99.90;;;;;;5031048;28;20829;-72
2022/06/06 11:25:51;;;;;;;3.10;2.60;;;26.60;99.90;;;;;;5030792;28;20782;-72
2022/06/06 11:28:35;;;;;;;2.20;2.00;;;26.50;99.90;;;;;;5031552;28;20397;-73
2022/06/06 11:31:29;;;;;;;2.90;2.63;;;26.10;99.90;;;;;;5030885;28;20405;-73
2022/06/06 11:34:28;;;;;;;2.27;2.07;;;25.80;99.90;;;;;;5031226;28;20944;-72
2022/06/06 11:37:03;;;;;;;2.90;2.70;;;25.60;99.90;;;;;;5030854;28;20481;-73
2022/06/06 11:39:56;;;;;;;3.23;2.87;;;25.90;99.90;;;;;;5030871;28;20444;-72
2022/06/06 11:42:37;;;;;;;2.20;1.90;;;26.10;99.90;;;;;;5012771;28;20397;-72
2022/06/06 11:45:39;;;;;;;2.20;2.10;;;26.20;99.90;;;;;;5034201;28;20408;-73
2022/06/06 11:48:26;;;;;;;4.53;2.40;;;26.40;99.90;;;;;;5034589;28;20899;-73
2022/06/06 11:51:00;;;;;;;2.67;2.47;;;25.50;99.90;;;;;;5034623;28;20794;-72
2022/06/06 11:53:57;;;;;;;2.93;2.67;;;26.00;99.90;;;;;;5034480;28;20451;-72
2022/06/06 11:56:45;;;;;;;2.57;2.37;;;26.80;99.90;;;;;;5034035;28;20431;-74
2022/06/06 11:59:25;;;;;;;2.30;1.90;;;26.80;99.90;;;;;;5034531;28;20415;-73
2022/06/06 12:02:13;;;;;;;2.57;2.37;;;26.90;99.90;;;;;;5034350;28;20399;-74
2022/06/06 12:04:47;;;;;;;1.90;1.77;;;26.40;99.90;;;;;;5034100;28;20755;-73
2022/06/06 12:07:41;;;;;;;2.10;1.90;;;27.00;99.90;;;;;;5033701;28;20438;-72
2022/06/06 12:10:26;;;;;;;2.40;2.20;;;27.10;99.90;;;;;;5034184;28;20398;-72
2022/06/06 12:13:10;;;;;;;2.80;1.90;;;26.40;99.90;;;;;;5033900;28;20400;-72
2022/06/06 12:15:54;;;;;;;2.00;1.90;;;26.40;99.90;;;;;;5034181;28;20411;-73
2022/06/06 12:18:27;;;;;;;2.23;2.03;;;26.70;99.00;;;;;;5033698;28;20409;-72
2022/06/06 12:21:21;;;;;;;2.20;2.10;;;26.70;99.80;;;;;;5033626;28;20444;-73
2022/06/06 12:23:50;;;;;;;1.90;1.80;;;26.30;99.90;;;;;;5033852;28;20487;-73
2022/06/06 12:26:55;;;;;;;2.20;2.00;;;26.10;99.90;;;;;;5033213;28;20444;-72
2022/06/06 12:29:35;;;;;;;3.47;2.57;;;26.00;99.90;;;;;;5033716;28;20413;-71
2022/06/06 12:32:26;;;;;;;3.30;2.53;;;25.90;99.90;;;;;;5033462;28;20408;-72
2022/06/06 12:35:08;;;;;;;2.53;2.17;;;25.80;99.90;;;;;;5033259;28;20396;-72
2022/06/06 12:37:55;;;;;;;2.40;1.90;;;25.50;99.90;;;;;;5033141;28;20464;-72
2022/06/06 12:40:26;;;;;;;2.43;2.23;;;25.20;99.90;;;;;;5033549;28;20494;-72
2022/06/06 12:43:25;;;;;;;2.93;2.70;;;25.20;99.90;;;;;;5033273;28;20412;-72
2022/06/06 12:46:05;;;;;;;2.47;2.27;;;25.40;99.90;;;;;;5030042;28;20413;-72
2022/06/06 12:48:38;;;;;;;3.33;3.00;;;25.40;99.90;;;;;;5033249;28;20811;-71
2022/06/06 12:51:41;;;;;;;2.20;2.00;;;25.10;99.90;;;;;;5031558;28;20421;-72
2022/06/06 12:54:49;;;;;;;2.33;2.13;;;25.10;99.90;;;;;;5032632;28;20412;-71
2022/06/06 12:57:21;;;;;;;2.40;2.07;;;24.90;99.90;;;;;;5032195;28;20431;-71
2022/06/06 13:00:08;;;;;;;4.20;2.20;;;24.90;99.90;;;;;;5032287;28;20971;-71
2022/06/06 13:02:45;;;;;;;3.03;1.93;;;24.90;99.90;;;;;;5032181;28;20521;-71
2022/06/06 13:05:24;;;;;;;2.43;2.23;;;25.40;99.90;;;;;;5032381;28;20972;-71
2022/06/06 13:08:19;;;;;;;2.57;1.90;;;25.40;99.90;;;;;;5014328;28;20442;-71
2022/06/06 13:10:57;;;;;;;3.23;2.50;;;25.40;99.90;;;;;;5032671;28;20493;-72
2022/06/06 13:13:42;;;;;;;2.37;2.17;;;25.00;99.90;;;;;;5032419;28;20433;-72
2022/06/06 13:16:32;;;;;;;2.33;2.13;;;25.30;99.90;;;;;;5032102;28;20429;-72
2022/06/06 13:19:39;;;;;;;2.57;2.20;;;25.50;99.90;;;;;;5032220;28;20420;-70
2022/06/06 13:22:34;;;;;;;2.50;2.30;;;26.00;99.90;;;;;;5032005;28;20409;-71
2022/06/06 13:25:31;;;;;;;2.43;2.23;;;26.10;99.90;;;;;;5032177;28;20409;-72
2022/06/06 13:28:11;;;;;;;2.30;2.10;;;26.00;99.90;;;;;;5032154;28;20434;-71
2022/06/06 13:30:46;;;;;;;3.40;3.20;;;26.00;99.90;;;;;;5032275;28;20435;-72
2022/06/06 13:33:34;;;;;;;5.80;5.30;;;26.10;99.90;;;;;;5032186;28;20409;-72
2022/06/06 13:36:18;;;;;;;3.20;2.80;;;26.60;99.90;;;;;;5031675;28;20515;-71
2022/06/06 13:39:18;;;;;;;5.30;4.10;;;26.00;99.90;;;;;;5031916;28;20470;-72
2022/06/06 13:42:18;;;;;;;3.00;2.57;;;26.10;99.90;;;;;;5031865;28;20428;-72
2022/06/06 13:45:19;;;;;;;2.33;2.13;;;26.50;99.90;;;;;;5030515;28;20421;-71
2022/06/06 13:47:53;;;;;;;2.10;1.87;;;26.40;99.90;;;;;;5032046;28;20432;-71
2022/06/06 13:50:36;;;;;;;2.53;2.33;;;26.40;99.90;;;;;;5031830;28;20400;-71
2022/06/06 13:53:25;;;;;;;3.13;2.03;;;26.20;99.90;;;;;;5031824;28;20425;-71
2022/06/06 13:56:28;;;;;;;6.70;3.17;;;26.20;99.90;;;;;;5031532;28;20502;-72
2022/06/06 13:59:08;;;;;;;2.20;2.00;;;26.30;99.90;;;;;;5030670;28;20769;-72
2022/06/06 14:01:50;;;;;;;2.20;2.00;;;26.30;99.90;;;;;;5031640;28;20509;-71
2022/06/06 14:04:51;;;;;;;2.37;2.20;;;26.10;99.90;;;;;;5031151;28;20924;-73
2022/06/06 14:07:30;;;;;;;2.47;2.27;;;26.30;99.90;;;;;;5031309;28;20453;-72
2022/06/06 14:10:11;;;;;;;2.23;2.03;;;26.50;99.90;;;;;;5031622;28;20440;-72
2022/06/06 14:12:45;;;;;;;2.23;2.03;;;26.80;99.90;;;;;;5031474;28;20914;-72
2022/06/06 14:15:14;;;;;;;2.03;1.73;;;25.80;99.40;;;;;;5031861;28;20408;-73
2022/06/06 14:17:48;;;;;;;3.80;1.83;;;26.30;99.10;;;;;;5031385;28;20428;-72
2022/06/06 14:20:32;;;;;;;2.43;2.23;;;26.30;99.90;;;;;;5031305;28;20486;-72
2022/06/06 14:23:37;;;;;;;3.20;2.90;;;26.20;99.70;;;;;;5031493;28;20469;-73
2022/06/06 14:26:13;;;;;;;3.40;2.70;;;25.80;99.90;;;;;;5030699;28;20443;-72